sensor_id;sensor_type;location;lat;lon;timestamp;P1;durP1;ratioP1;P2;durP2;ratioP2
24751;SDS011;27246;52.376;4.628;2023-06-19T00:02:43;14.05;;;9.25;;
24751;SDS011;27246;52.376;4.628;2023-06-19T00:07:45;10.18;;;8.98;;
24751;SDS011;27246;52.376;4.628;2023-06-19T00:12:47;10.52;;;9.60;;
24751;SDS011;27246;52.376;4.628;2023-06-19T00:17:49;10.68;;;8.55;;
24751;SDS011;27246;52.376;4.628;2023-06-19T00:22:51;11.52;;;8.85;;
24751;SDS011;27246;52.376;4.628;2023-06-19T00:27:53;11.68;;;8.70;;
24751;SDS011;27246;52.376;4.628;2023-06-19T00:32:55;14.45;;;9.50;;
24751;SDS011;27246;52.376;4.628;2023-06-19T00:37:58;11.05;;;8.40;;
24751;SDS011;27246;52.376;4.628;2023-06-19T00:43:02;7.32;;;6.70;;
24751;SDS011;27246;52.376;4.628;2023-06-19T00:48:04;6.78;;;4.05;;
24751;SDS011;27246;52.376;4.628;2023-06-19T00:53:06;6.07;;;4.05;;
24751;SDS011;27246;52.376;4.628;2023-06-19T00:58:09;3.92;;;2.25;;
24751;SDS011;27246;52.376;4.628;2023-06-19T01:03:12;1.80;;;1.52;;
24751;SDS011;27246;52.376;4.628;2023-06-19T01:13:45;3.35;;;1.70;;
24751;SDS011;27246;52.376;4.628;2023-06-19T01:18:51;2.53;;;2.10;;
24751;SDS011;27246;52.376;4.628;2023-06-19T01:23:54;6.40;;;3.60;;
24751;SDS011;27246;52.376;4.628;2023-06-19T01:28:57;4.22;;;3.42;;
24751;SDS011;27246;52.376;4.628;2023-06-19T01:34:00;3.90;;;3.50;;
24751;SDS011;27246;52.376;4.628;2023-06-19T01:39:03;9.05;;;3.58;;
24751;SDS011;27246;52.376;4.628;2023-06-19T01:44:10;3.85;;;3.47;;
24751;SDS011;27246;52.376;4.628;2023-06-19T01:49:12;3.60;;;3.30;;
24751;SDS011;27246;52.376;4.628;2023-06-19T01:54:14;7.70;;;4.03;;
24751;SDS011;27246;52.376;4.628;2023-06-19T01:59:16;6.18;;;3.13;;
24751;SDS011;27246;52.376;4.628;2023-06-19T02:04:17;6.00;;;3.90;;
24751;SDS011;27246;52.376;4.628;2023-06-19T02:09:19;5.38;;;4.88;;
24751;SDS011;27246;52.376;4.628;2023-06-19T02:14:21;10.43;;;7.90;;
24751;SDS011;27246;52.376;4.628;2023-06-19T02:19:23;8.63;;;7.82;;
24751;SDS011;27246;52.376;4.628;2023-06-19T02:24:25;8.52;;;7.68;;
24751;SDS011;27246;52.376;4.628;2023-06-19T02:29:27;12.57;;;11.40;;
24751;SDS011;27246;52.376;4.628;2023-06-19T02:34:30;12.63;;;11.13;;
24751;SDS011;27246;52.376;4.628;2023-06-19T02:39:34;19.02;;;13.70;;
24751;SDS011;27246;52.376;4.628;2023-06-19T02:44:35;13.60;;;12.43;;
24751;SDS011;27246;52.376;4.628;2023-06-19T02:49:37;14.13;;;12.93;;
24751;SDS011;27246;52.376;4.628;2023-06-19T02:54:39;14.30;;;13.00;;
24751;SDS011;27246;52.376;4.628;2023-06-19T02:59:40;13.45;;;12.15;;
24751;SDS011;27246;52.376;4.628;2023-06-19T03:04:42;14.80;;;13.20;;
24751;SDS011;27246;52.376;4.628;2023-06-19T03:09:45;13.90;;;12.63;;
24751;SDS011;27246;52.376;4.628;2023-06-19T03:14:48;20.75;;;15.95;;
24751;SDS011;27246;52.376;4.628;2023-06-19T03:19:51;23.65;;;20.25;;
24751;SDS011;27246;52.376;4.628;2023-06-19T03:24:53;65.28;;;28.88;;
24751;SDS011;27246;52.376;4.628;2023-06-19T03:29:56;32.03;;;24.33;;
24751;SDS011;27246;52.376;4.628;2023-06-19T03:35:08;33.13;;;26.85;;
24751;SDS011;27246;52.376;4.628;2023-06-19T03:40:16;33.35;;;26.00;;
24751;SDS011;27246;52.376;4.628;2023-06-19T03:45:22;32.53;;;26.25;;
24751;SDS011;27246;52.376;4.628;2023-06-19T03:50:23;41.33;;;29.40;;
24751;SDS011;27246;52.376;4.628;2023-06-19T03:55:27;47.63;;;34.88;;
24751;SDS011;27246;52.376;4.628;2023-06-19T04:00:29;86.13;;;38.30;;
24751;SDS011;27246;52.376;4.628;2023-06-19T04:05:31;45.55;;;32.50;;
24751;SDS011;27246;52.376;4.628;2023-06-19T04:10:33;43.25;;;29.45;;
24751;SDS011;27246;52.376;4.628;2023-06-19T04:15:36;47.75;;;30.23;;
24751;SDS011;27246;52.376;4.628;2023-06-19T04:20:38;45.85;;;31.38;;
24751;SDS011;27246;52.376;4.628;2023-06-19T04:25:41;42.05;;;29.65;;
24751;SDS011;27246;52.376;4.628;2023-06-19T04:30:43;36.60;;;21.23;;
24751;SDS011;27246;52.376;4.628;2023-06-19T04:35:44;31.95;;;18.23;;
24751;SDS011;27246;52.376;4.628;2023-06-19T04:40:46;22.75;;;14.85;;
24751;SDS011;27246;52.376;4.628;2023-06-19T04:45:48;48.92;;;15.38;;
24751;SDS011;27246;52.376;4.628;2023-06-19T04:50:51;16.85;;;12.20;;
24751;SDS011;27246;52.376;4.628;2023-06-19T04:55:53;16.35;;;11.55;;
24751;SDS011;27246;52.376;4.628;2023-06-19T05:00:56;14.25;;;9.40;;
24751;SDS011;27246;52.376;4.628;2023-06-19T05:05:58;12.88;;;9.23;;
24751;SDS011;27246;52.376;4.628;2023-06-19T05:10:59;12.65;;;9.00;;
24751;SDS011;27246;52.376;4.628;2023-06-19T05:16:01;21.80;;;9.80;;
24751;SDS011;27246;52.376;4.628;2023-06-19T05:21:03;40.88;;;11.00;;
24751;SDS011;27246;52.376;4.628;2023-06-19T05:26:08;20.55;;;10.55;;
24751;SDS011;27246;52.376;4.628;2023-06-19T05:31:10;17.75;;;9.50;;
24751;SDS011;27246;52.376;4.628;2023-06-19T05:36:12;15.23;;;9.55;;
24751;SDS011;27246;52.376;4.628;2023-06-19T05:41:13;21.75;;;10.60;;
24751;SDS011;27246;52.376;4.628;2023-06-19T05:46:17;16.52;;;10.15;;
24751;SDS011;27246;52.376;4.628;2023-06-19T05:51:19;18.23;;;12.05;;
24751;SDS011;27246;52.376;4.628;2023-06-19T05:56:20;14.68;;;12.20;;
24751;SDS011;27246;52.376;4.628;2023-06-19T06:01:22;16.90;;;11.60;;
24751;SDS011;27246;52.376;4.628;2023-06-19T06:06:26;17.35;;;13.52;;
24751;SDS011;27246;52.376;4.628;2023-06-19T06:11:28;17.92;;;13.18;;
24751;SDS011;27246;52.376;4.628;2023-06-19T06:16:29;20.45;;;14.40;;
24751;SDS011;27246;52.376;4.628;2023-06-19T06:21:33;19.77;;;16.25;;
24751;SDS011;27246;52.376;4.628;2023-06-19T06:26:36;23.05;;;15.90;;
24751;SDS011;27246;52.376;4.628;2023-06-19T06:31:38;26.40;;;15.68;;
24751;SDS011;27246;52.376;4.628;2023-06-19T06:36:42;28.85;;;15.25;;
24751;SDS011;27246;52.376;4.628;2023-06-19T06:42:01;19.57;;;14.53;;
24751;SDS011;27246;52.376;4.628;2023-06-19T06:47:05;53.78;;;15.88;;
24751;SDS011;27246;52.376;4.628;2023-06-19T06:52:07;17.75;;;13.60;;
24751;SDS011;27246;52.376;4.628;2023-06-19T06:57:09;16.70;;;12.52;;
24751;SDS011;27246;52.376;4.628;2023-06-19T07:02:11;16.73;;;12.55;;
24751;SDS011;27246;52.376;4.628;2023-06-19T07:07:12;18.92;;;12.02;;
24751;SDS011;27246;52.376;4.628;2023-06-19T07:12:14;18.33;;;12.80;;
24751;SDS011;27246;52.376;4.628;2023-06-19T07:17:16;17.70;;;12.50;;
24751;SDS011;27246;52.376;4.628;2023-06-19T07:22:21;20.67;;;12.55;;
24751;SDS011;27246;52.376;4.628;2023-06-19T07:27:23;13.07;;;10.80;;
24751;SDS011;27246;52.376;4.628;2023-06-19T07:32:28;22.55;;;13.35;;
24751;SDS011;27246;52.376;4.628;2023-06-19T07:37:30;16.33;;;12.40;;
24751;SDS011;27246;52.376;4.628;2023-06-19T07:42:36;17.73;;;11.80;;
24751;SDS011;27246;52.376;4.628;2023-06-19T07:47:37;13.98;;;11.85;;
24751;SDS011;27246;52.376;4.628;2023-06-19T07:52:39;23.23;;;11.25;;
24751;SDS011;27246;52.376;4.628;2023-06-19T07:57:44;15.45;;;11.07;;
24751;SDS011;27246;52.376;4.628;2023-06-19T08:02:48;15.05;;;11.18;;
24751;SDS011;27246;52.376;4.628;2023-06-19T08:07:50;12.32;;;10.07;;
24751;SDS011;27246;52.376;4.628;2023-06-19T08:12:52;15.88;;;11.38;;
24751;SDS011;27246;52.376;4.628;2023-06-19T08:17:54;15.40;;;11.63;;
24751;SDS011;27246;52.376;4.628;2023-06-19T08:22:56;17.08;;;12.57;;
24751;SDS011;27246;52.376;4.628;2023-06-19T08:27:58;18.05;;;11.90;;
24751;SDS011;27246;52.376;4.628;2023-06-19T08:32:59;16.02;;;11.95;;
24751;SDS011;27246;52.376;4.628;2023-06-19T08:38:01;14.30;;;11.23;;
24751;SDS011;27246;52.376;4.628;2023-06-19T08:43:03;14.85;;;12.43;;
24751;SDS011;27246;52.376;4.628;2023-06-19T08:48:06;16.73;;;13.57;;
24751;SDS011;27246;52.376;4.628;2023-06-19T08:53:17;18.35;;;13.35;;
24751;SDS011;27246;52.376;4.628;2023-06-19T08:58:23;20.13;;;12.90;;
24751;SDS011;27246;52.376;4.628;2023-06-19T09:03:25;14.98;;;11.38;;
24751;SDS011;27246;52.376;4.628;2023-06-19T09:08:27;16.58;;;11.90;;
24751;SDS011;27246;52.376;4.628;2023-06-19T09:13:31;16.05;;;12.75;;
24751;SDS011;27246;52.376;4.628;2023-06-19T09:18:42;15.48;;;11.82;;
24751;SDS011;27246;52.376;4.628;2023-06-19T09:23:50;22.65;;;11.40;;
24751;SDS011;27246;52.376;4.628;2023-06-19T09:29:10;15.68;;;10.55;;
24751;SDS011;27246;52.376;4.628;2023-06-19T09:34:21;15.77;;;11.07;;
24751;SDS011;27246;52.376;4.628;2023-06-19T09:39:24;12.27;;;10.18;;
24751;SDS011;27246;52.376;4.628;2023-06-19T09:44:31;15.20;;;11.25;;
24751;SDS011;27246;52.376;4.628;2023-06-19T09:49:55;16.63;;;10.13;;
24751;SDS011;27246;52.376;4.628;2023-06-19T09:54:58;21.08;;;11.93;;
24751;SDS011;27246;52.376;4.628;2023-06-19T10:00:07;14.68;;;9.57;;
24751;SDS011;27246;52.376;4.628;2023-06-19T10:05:14;11.70;;;9.60;;
24751;SDS011;27246;52.376;4.628;2023-06-19T10:10:26;10.00;;;8.60;;
24751;SDS011;27246;52.376;4.628;2023-06-19T10:15:32;14.55;;;9.07;;
24751;SDS011;27246;52.376;4.628;2023-06-19T10:20:36;13.98;;;9.13;;
24751;SDS011;27246;52.376;4.628;2023-06-19T10:25:48;11.68;;;9.07;;
24751;SDS011;27246;52.376;4.628;2023-06-19T10:36:00;13.48;;;8.95;;
24751;SDS011;27246;52.376;4.628;2023-06-19T10:41:03;11.02;;;8.48;;
24751;SDS011;27246;52.376;4.628;2023-06-19T10:46:05;12.00;;;7.57;;
24751;SDS011;27246;52.376;4.628;2023-06-19T10:51:07;9.75;;;7.78;;
24751;SDS011;27246;52.376;4.628;2023-06-19T10:56:09;12.27;;;7.80;;
24751;SDS011;27246;52.376;4.628;2023-06-19T11:01:11;12.35;;;8.32;;
24751;SDS011;27246;52.376;4.628;2023-06-19T11:06:19;13.15;;;7.40;;
24751;SDS011;27246;52.376;4.628;2023-06-19T11:11:21;11.10;;;8.07;;
24751;SDS011;27246;52.376;4.628;2023-06-19T11:16:23;10.18;;;7.95;;
24751;SDS011;27246;52.376;4.628;2023-06-19T11:21:31;10.80;;;8.07;;
24751;SDS011;27246;52.376;4.628;2023-06-19T11:26:38;10.40;;;7.75;;
24751;SDS011;27246;52.376;4.628;2023-06-19T11:31:45;11.20;;;7.53;;
24751;SDS011;27246;52.376;4.628;2023-06-19T11:36:48;8.77;;;7.70;;
24751;SDS011;27246;52.376;4.628;2023-06-19T11:41:51;14.98;;;7.68;;
24751;SDS011;27246;52.376;4.628;2023-06-19T11:46:58;16.05;;;7.95;;
24751;SDS011;27246;52.376;4.628;2023-06-19T11:52:01;8.93;;;6.65;;
24751;SDS011;27246;52.376;4.628;2023-06-19T11:57:05;8.98;;;6.30;;
24751;SDS011;27246;52.376;4.628;2023-06-19T12:02:08;8.07;;;6.05;;
24751;SDS011;27246;52.376;4.628;2023-06-19T12:07:10;9.85;;;5.50;;
24751;SDS011;27246;52.376;4.628;2023-06-19T12:12:12;8.77;;;5.95;;
24751;SDS011;27246;52.376;4.628;2023-06-19T12:17:14;6.38;;;5.47;;
24751;SDS011;27246;52.376;4.628;2023-06-19T12:22:16;7.07;;;5.75;;
24751;SDS011;27246;52.376;4.628;2023-06-19T12:27:18;8.13;;;5.88;;
24751;SDS011;27246;52.376;4.628;2023-06-19T12:32:19;8.82;;;6.78;;
24751;SDS011;27246;52.376;4.628;2023-06-19T12:37:22;7.57;;;5.20;;
24751;SDS011;27246;52.376;4.628;2023-06-19T12:42:24;6.32;;;5.43;;
24751;SDS011;27246;52.376;4.628;2023-06-19T12:47:26;7.30;;;5.90;;
24751;SDS011;27246;52.376;4.628;2023-06-19T12:52:27;12.07;;;6.60;;
24751;SDS011;27246;52.376;4.628;2023-06-19T12:57:29;7.70;;;5.70;;
24751;SDS011;27246;52.376;4.628;2023-06-19T13:02:31;9.63;;;6.43;;
24751;SDS011;27246;52.376;4.628;2023-06-19T13:07:33;10.73;;;6.32;;
24751;SDS011;27246;52.376;4.628;2023-06-19T13:12:35;9.20;;;5.78;;
24751;SDS011;27246;52.376;4.628;2023-06-19T13:17:39;18.52;;;5.97;;
24751;SDS011;27246;52.376;4.628;2023-06-19T13:22:40;6.53;;;4.97;;
24751;SDS011;27246;52.376;4.628;2023-06-19T13:27:42;5.90;;;4.45;;
24751;SDS011;27246;52.376;4.628;2023-06-19T13:32:44;7.47;;;5.47;;
24751;SDS011;27246;52.376;4.628;2023-06-19T13:37:46;6.30;;;4.80;;
24751;SDS011;27246;52.376;4.628;2023-06-19T13:42:48;7.70;;;5.43;;
24751;SDS011;27246;52.376;4.628;2023-06-19T13:47:50;5.65;;;4.85;;
24751;SDS011;27246;52.376;4.628;2023-06-19T13:52:52;9.02;;;5.90;;
24751;SDS011;27246;52.376;4.628;2023-06-19T13:57:55;28.00;;;8.55;;
24751;SDS011;27246;52.376;4.628;2023-06-19T14:02:57;6.25;;;4.78;;
24751;SDS011;27246;52.376;4.628;2023-06-19T14:07:59;9.55;;;5.10;;
24751;SDS011;27246;52.376;4.628;2023-06-19T14:13:01;12.52;;;5.35;;
24751;SDS011;27246;52.376;4.628;2023-06-19T14:18:03;14.93;;;5.78;;
24751;SDS011;27246;52.376;4.628;2023-06-19T14:23:05;9.70;;;5.60;;
24751;SDS011;27246;52.376;4.628;2023-06-19T14:28:07;8.27;;;4.47;;
24751;SDS011;27246;52.376;4.628;2023-06-19T14:33:09;6.32;;;5.13;;
24751;SDS011;27246;52.376;4.628;2023-06-19T14:38:16;6.43;;;5.20;;
24751;SDS011;27246;52.376;4.628;2023-06-19T14:43:18;7.82;;;5.55;;
24751;SDS011;27246;52.376;4.628;2023-06-19T14:48:20;5.38;;;4.65;;
24751;SDS011;27246;52.376;4.628;2023-06-19T14:53:22;6.07;;;4.00;;
24751;SDS011;27246;52.376;4.628;2023-06-19T14:58:25;6.65;;;4.43;;
24751;SDS011;27246;52.376;4.628;2023-06-19T15:03:30;5.50;;;3.70;;
24751;SDS011;27246;52.376;4.628;2023-06-19T15:08:32;7.40;;;4.93;;
24751;SDS011;27246;52.376;4.628;2023-06-19T15:13:36;5.40;;;4.20;;
24751;SDS011;27246;52.376;4.628;2023-06-19T15:18:38;7.70;;;4.82;;
24751;SDS011;27246;52.376;4.628;2023-06-19T15:23:40;5.32;;;4.15;;
24751;SDS011;27246;52.376;4.628;2023-06-19T15:28:41;6.80;;;4.78;;
24751;SDS011;27246;52.376;4.628;2023-06-19T15:33:45;5.30;;;4.20;;
24751;SDS011;27246;52.376;4.628;2023-06-19T15:38:46;5.70;;;4.72;;
24751;SDS011;27246;52.376;4.628;2023-06-19T15:43:50;9.15;;;5.45;;
24751;SDS011;27246;52.376;4.628;2023-06-19T15:48:52;7.22;;;5.28;;
24751;SDS011;27246;52.376;4.628;2023-06-19T15:53:54;6.85;;;5.03;;
24751;SDS011;27246;52.376;4.628;2023-06-19T15:58:55;6.68;;;4.65;;
24751;SDS011;27246;52.376;4.628;2023-06-19T16:03:57;8.45;;;4.95;;
24751;SDS011;27246;52.376;4.628;2023-06-19T16:09:00;5.68;;;4.85;;
24751;SDS011;27246;52.376;4.628;2023-06-19T16:14:02;6.57;;;5.25;;
24751;SDS011;27246;52.376;4.628;2023-06-19T16:19:05;5.82;;;4.43;;
24751;SDS011;27246;52.376;4.628;2023-06-19T16:24:07;6.18;;;4.38;;
24751;SDS011;27246;52.376;4.628;2023-06-19T16:29:09;5.60;;;4.82;;
24751;SDS011;27246;52.376;4.628;2023-06-19T16:34:10;6.57;;;4.93;;
24751;SDS011;27246;52.376;4.628;2023-06-19T16:39:12;5.75;;;4.60;;
24751;SDS011;27246;52.376;4.628;2023-06-19T16:44:15;8.57;;;5.28;;
24751;SDS011;27246;52.376;4.628;2023-06-19T16:49:18;5.82;;;4.88;;
24751;SDS011;27246;52.376;4.628;2023-06-19T16:54:22;5.70;;;4.50;;
24751;SDS011;27246;52.376;4.628;2023-06-19T16:59:23;5.85;;;4.55;;
24751;SDS011;27246;52.376;4.628;2023-06-19T17:04:25;6.70;;;4.60;;
24751;SDS011;27246;52.376;4.628;2023-06-19T17:09:27;5.55;;;4.72;;
24751;SDS011;27246;52.376;4.628;2023-06-19T17:14:29;7.40;;;5.20;;
24751;SDS011;27246;52.376;4.628;2023-06-19T17:19:30;6.63;;;5.03;;
24751;SDS011;27246;52.376;4.628;2023-06-19T17:24:32;5.85;;;4.70;;
24751;SDS011;27246;52.376;4.628;2023-06-19T17:29:35;6.32;;;5.05;;
24751;SDS011;27246;52.376;4.628;2023-06-19T17:34:37;6.07;;;4.00;;
24751;SDS011;27246;52.376;4.628;2023-06-19T17:39:39;6.22;;;4.68;;
24751;SDS011;27246;52.376;4.628;2023-06-19T17:44:41;7.53;;;4.45;;
24751;SDS011;27246;52.376;4.628;2023-06-19T17:49:45;7.85;;;4.93;;
24751;SDS011;27246;52.376;4.628;2023-06-19T17:54:48;11.63;;;4.88;;
24751;SDS011;27246;52.376;4.628;2023-06-19T17:59:51;7.72;;;4.45;;
24751;SDS011;27246;52.376;4.628;2023-06-19T18:04:54;6.75;;;5.00;;
24751;SDS011;27246;52.376;4.628;2023-06-19T18:09:56;6.97;;;4.40;;
24751;SDS011;27246;52.376;4.628;2023-06-19T18:14:58;7.18;;;4.10;;
24751;SDS011;27246;52.376;4.628;2023-06-19T18:20:00;7.57;;;4.20;;
24751;SDS011;27246;52.376;4.628;2023-06-19T18:25:02;4.50;;;3.63;;
24751;SDS011;27246;52.376;4.628;2023-06-19T18:30:03;4.82;;;3.67;;
24751;SDS011;27246;52.376;4.628;2023-06-19T18:35:07;9.50;;;4.70;;
24751;SDS011;27246;52.376;4.628;2023-06-19T18:40:09;4.80;;;3.55;;
24751;SDS011;27246;52.376;4.628;2023-06-19T18:45:11;6.40;;;3.60;;
24751;SDS011;27246;52.376;4.628;2023-06-19T18:50:13;5.75;;;4.10;;
24751;SDS011;27246;52.376;4.628;2023-06-19T18:55:15;5.70;;;3.67;;
24751;SDS011;27246;52.376;4.628;2023-06-19T19:00:17;4.55;;;3.05;;
24751;SDS011;27246;52.376;4.628;2023-06-19T19:05:20;5.55;;;3.40;;
24751;SDS011;27246;52.376;4.628;2023-06-19T19:10:21;5.28;;;3.30;;
24751;SDS011;27246;52.376;4.628;2023-06-19T19:15:24;5.10;;;3.75;;
24751;SDS011;27246;52.376;4.628;2023-06-19T19:20:25;4.93;;;3.55;;
24751;SDS011;27246;52.376;4.628;2023-06-19T19:25:28;23.23;;;4.55;;
24751;SDS011;27246;52.376;4.628;2023-06-19T19:30:29;5.10;;;3.58;;
24751;SDS011;27246;52.376;4.628;2023-06-19T19:35:31;6.70;;;4.82;;
24751;SDS011;27246;52.376;4.628;2023-06-19T19:40:33;6.15;;;4.05;;
24751;SDS011;27246;52.376;4.628;2023-06-19T19:45:35;5.68;;;4.95;;
24751;SDS011;27246;52.376;4.628;2023-06-19T19:50:37;6.35;;;4.13;;
24751;SDS011;27246;52.376;4.628;2023-06-19T19:55:39;4.70;;;4.20;;
24751;SDS011;27246;52.376;4.628;2023-06-19T20:00:41;6.00;;;4.15;;
24751;SDS011;27246;52.376;4.628;2023-06-19T20:05:49;8.02;;;4.65;;
24751;SDS011;27246;52.376;4.628;2023-06-19T20:10:51;5.60;;;4.32;;
24751;SDS011;27246;52.376;4.628;2023-06-19T20:15:53;10.75;;;5.45;;
24751;SDS011;27246;52.376;4.628;2023-06-19T20:20:55;6.47;;;4.35;;
24751;SDS011;27246;52.376;4.628;2023-06-19T20:25:57;7.18;;;4.40;;
24751;SDS011;27246;52.376;4.628;2023-06-19T20:31:00;5.53;;;3.97;;
24751;SDS011;27246;52.376;4.628;2023-06-19T20:36:02;11.55;;;5.07;;
24751;SDS011;27246;52.376;4.628;2023-06-19T20:41:05;6.30;;;4.20;;
24751;SDS011;27246;52.376;4.628;2023-06-19T20:46:07;6.53;;;4.43;;
24751;SDS011;27246;52.376;4.628;2023-06-19T20:51:10;4.53;;;4.00;;
24751;SDS011;27246;52.376;4.628;2023-06-19T20:56:12;6.65;;;5.10;;
24751;SDS011;27246;52.376;4.628;2023-06-19T21:01:13;7.13;;;5.00;;
24751;SDS011;27246;52.376;4.628;2023-06-19T21:06:16;8.25;;;6.07;;
24751;SDS011;27246;52.376;4.628;2023-06-19T21:11:21;7.93;;;6.05;;
24751;SDS011;27246;52.376;4.628;2023-06-19T21:16:22;9.05;;;7.35;;
24751;SDS011;27246;52.376;4.628;2023-06-19T21:21:25;9.60;;;6.13;;
24751;SDS011;27246;52.376;4.628;2023-06-19T21:26:28;11.43;;;6.72;;
24751;SDS011;27246;52.376;4.628;2023-06-19T21:31:30;12.27;;;6.43;;
24751;SDS011;27246;52.376;4.628;2023-06-19T21:36:31;8.18;;;6.30;;
24751;SDS011;27246;52.376;4.628;2023-06-19T21:41:33;12.95;;;7.20;;
24751;SDS011;27246;52.376;4.628;2023-06-19T21:46:36;11.57;;;9.20;;
24751;SDS011;27246;52.376;4.628;2023-06-19T21:51:38;10.25;;;7.25;;
24751;SDS011;27246;52.376;4.628;2023-06-19T21:56:40;10.93;;;6.93;;
24751;SDS011;27246;52.376;4.628;2023-06-19T22:01:41;8.00;;;5.88;;
24751;SDS011;27246;52.376;4.628;2023-06-19T22:06:43;8.13;;;6.40;;
24751;SDS011;27246;52.376;4.628;2023-06-19T22:11:45;10.45;;;6.78;;
24751;SDS011;27246;52.376;4.628;2023-06-19T22:16:47;13.07;;;7.00;;
24751;SDS011;27246;52.376;4.628;2023-06-19T22:21:48;11.73;;;7.80;;
24751;SDS011;27246;52.376;4.628;2023-06-19T22:26:50;9.77;;;6.70;;
24751;SDS011;27246;52.376;4.628;2023-06-19T22:31:52;8.77;;;6.13;;
24751;SDS011;27246;52.376;4.628;2023-06-19T22:36:54;9.70;;;6.68;;
24751;SDS011;27246;52.376;4.628;2023-06-19T22:41:55;8.70;;;6.53;;
24751;SDS011;27246;52.376;4.628;2023-06-19T22:46:57;11.90;;;7.60;;
24751;SDS011;27246;52.376;4.628;2023-06-19T22:51:59;10.55;;;6.70;;
24751;SDS011;27246;52.376;4.628;2023-06-19T22:57:01;10.55;;;6.88;;
24751;SDS011;27246;52.376;4.628;2023-06-19T23:02:02;8.20;;;7.03;;
24751;SDS011;27246;52.376;4.628;2023-06-19T23:07:07;11.57;;;6.50;;
24751;SDS011;27246;52.376;4.628;2023-06-19T23:12:09;8.82;;;6.65;;
24751;SDS011;27246;52.376;4.628;2023-06-19T23:17:11;11.57;;;6.88;;
24751;SDS011;27246;52.376;4.628;2023-06-19T23:22:12;7.82;;;6.70;;
24751;SDS011;27246;52.376;4.628;2023-06-19T23:27:14;9.30;;;6.35;;
24751;SDS011;27246;52.376;4.628;2023-06-19T23:32:17;8.63;;;6.78;;
24751;SDS011;27246;52.376;4.628;2023-06-19T23:37:19;9.00;;;6.25;;
24751;SDS011;27246;52.376;4.628;2023-06-19T23:42:23;8.35;;;5.88;;
24751;SDS011;27246;52.376;4.628;2023-06-19T23:47:25;7.15;;;5.85;;
24751;SDS011;27246;52.376;4.628;2023-06-19T23:52:27;7.57;;;5.80;;
24751;SDS011;27246;52.376;4.628;2023-06-19T23:57:44;7.47;;;5.55;;
